Time;durP1;ratioP1;P1;durP2;ratioP2;P2;SDS_P1;SDS_P2;PMS_P1;PMS_P2;Temp;Humidity;BMP_temperature;BMP_pressure;BME280_temperature;BME280_humidity;BME280_pressure;Samples;Min_cycle;Max_cycle;Signal;HPM_P1;HPM_P2
2022/02/09 00:00:40;;;;;;;9.73;8.52;;;17.10;65.50;;;;;;5052957;28;20057;-26
2022/02/09 00:05:44;;;;;;;8.90;8.00;;;17.10;65.40;;;;;;5074034;28;20048;-28
2022/02/09 00:08:10;;;;;;;9.00;8.10;;;17.20;65.30;;;;;;5073592;28;20040;-26
2022/02/09 00:10:39;;;;;;;10.10;8.55;;;17.20;65.30;;;;;;5068449;28;20051;-24
2022/02/09 00:13:27;;;;;;;9.15;8.25;;;17.20;65.30;;;;;;5069971;28;20053;-26
2022/02/09 00:28:50;;;;;;;8.95;7.38;;;17.10;65.20;;;;;;5058926;28;20057;-27
2022/02/09 01:11:57;;;;;;;6.10;5.60;;;17.10;65.20;;;;;;5043466;28;20047;-26
2022/02/09 01:57:35;;;;;;;5.18;4.78;;;17.20;65.10;;;;;;5056612;28;20098;-26
2022/02/09 02:00:00;;;;;;;5.53;5.13;;;17.10;64.90;;;;;;5064523;28;20045;-26
2022/02/09 02:02:26;;;;;;;4.75;4.45;;;17.20;65.00;;;;;;5055544;28;20072;-26
2022/02/09 02:04:52;;;;;;;4.97;4.57;;;17.20;64.90;;;;;;5072107;28;20040;-26
2022/02/09 02:07:53;;;;;;;4.40;4.10;;;17.20;64.90;;;;;;5072738;28;20193;-26
2022/02/09 02:10:12;;;;;;;4.82;4.43;;;17.20;64.90;;;;;;5067672;28;20052;-26
2022/02/09 02:13:01;;;;;;;4.50;4.10;;;17.20;65.00;;;;;;5069567;28;20052;-26
2022/02/09 02:18:16;;;;;;;4.15;3.85;;;17.20;64.90;;;;;;5035713;28;20183;-26
2022/02/09 02:28:38;;;;;;;4.93;4.63;;;17.20;64.90;;;;;;5070591;28;20470;-26
2022/02/09 02:32:02;;;;;;;4.57;4.28;;;17.20;64.90;;;;;;5054869;28;20057;-26
2022/02/09 02:37:06;;;;;;;4.78;4.38;;;17.20;64.90;;;;;;5055623;28;20095;-26
2022/02/09 02:58:55;;;;;;;3.75;3.53;;;17.20;65.00;;;;;;5067284;28;20059;-26
2022/02/09 03:12:06;;;;;;;3.35;3.05;;;17.20;65.10;;;;;;5074123;28;20630;-26
2022/02/09 03:14:54;;;;;;;3.53;3.30;;;17.20;65.30;;;;;;5067592;28;20047;-26
2022/02/09 03:17:25;;;;;;;3.45;3.25;;;17.10;65.10;;;;;;5067923;28;20151;-26
2022/02/09 03:54:12;;;;;;;3.17;2.97;;;17.10;65.30;;;;;;5067933;28;20040;-26
2022/02/09 03:59:34;;;;;;;3.63;3.42;;;17.10;65.20;;;;;;5012706;28;20622;-27
2022/02/09 04:02:00;;;;;;;4.07;3.70;;;17.10;65.20;;;;;;5067436;28;20051;-26
2022/02/09 04:04:25;;;;;;;3.33;3.13;;;17.10;65.20;;;;;;5053586;28;20041;-29
2022/02/09 04:06:52;;;;;;;2.83;2.72;;;17.10;66.00;;;;;;5055162;28;20052;-26
2022/02/09 04:09:21;;;;;;;3.33;3.13;;;17.10;65.20;;;;;;5057536;28;20045;-26
2022/02/09 04:12:15;;;;;;;3.00;2.80;;;17.00;65.30;;;;;;5068778;28;20055;-27
2022/02/09 04:17:23;;;;;;;3.45;3.25;;;17.00;65.30;;;;;;5069032;28;20044;-26
2022/02/09 05:28:34;;;;;;;2.83;2.63;;;17.00;65.10;;;;;;5098107;28;20300;-26
2022/02/09 05:30:54;;;;;;;2.55;2.45;;;17.00;65.00;;;;;;5056832;28;20041;-27
2022/02/09 05:33:19;;;;;;;2.65;2.55;;;17.00;64.90;;;;;;5079869;28;20049;-27
2022/02/09 05:35:45;;;;;;;2.95;2.75;;;17.00;64.80;;;;;;5076724;28;20107;-26
2022/02/09 05:38:12;;;;;;;2.20;2.10;;;17.00;64.80;;;;;;5075980;28;20040;-26
2022/02/09 05:40:38;;;;;;;2.30;2.20;;;17.10;64.60;;;;;;5072122;28;20091;-26
2022/02/09 05:43:03;;;;;;;1.90;1.80;;;17.00;64.80;;;;;;5055923;28;20122;-27
2022/02/09 05:51:09;;;;;;;2.42;2.33;;;17.00;64.70;;;;;;5070119;28;20101;-26
2022/02/09 05:58:50;;;;;;;2.70;2.50;;;17.00;65.50;;;;;;5060515;28;20048;-26
2022/02/09 06:01:16;;;;;;;2.20;2.10;;;17.00;64.80;;;;;;5075561;28;20047;-26
2022/02/09 06:03:41;;;;;;;2.38;2.28;;;17.00;64.90;;;;;;5075855;28;20151;-26
2022/02/09 06:06:09;;;;;;;2.75;2.58;;;17.00;64.80;;;;;;5091576;28;20051;-26
2022/02/09 06:08:36;;;;;;;2.05;1.95;;;17.00;64.80;;;;;;5061183;28;20512;-27
2022/02/09 06:11:13;;;;;;;2.47;2.38;;;17.00;65.50;;;;;;5038908;28;20094;-26
2022/02/09 06:19:37;;;;;;;2.22;2.10;;;17.00;64.80;;;;;;5069799;28;20052;-26
2022/02/09 06:21:37;;;;;;;2.35;2.25;;;16.90;64.80;;;;;;5069557;28;20103;-26
2022/02/09 06:24:03;;;;;;;1.92;1.83;;;17.00;64.80;;;;;;5072024;28;20033;-27
2022/02/09 06:26:28;;;;;;;2.00;1.90;;;16.90;64.90;;;;;;5068098;28;20501;-26
2022/02/09 06:28:54;;;;;;;2.20;2.10;;;16.90;65.00;;;;;;5041752;28;20048;-26
2022/02/09 06:31:20;;;;;;;1.85;1.75;;;16.90;64.90;;;;;;5057087;28;20052;-26
2022/02/09 06:33:46;;;;;;;2.08;1.98;;;16.90;64.90;;;;;;5070786;28;20509;-26
2022/02/09 06:36:14;;;;;;;2.03;1.92;;;16.90;64.80;;;;;;5054705;28;20053;-26
2022/02/09 06:38:40;;;;;;;2.13;2.03;;;16.90;64.90;;;;;;5054994;28;20075;-28
2022/02/09 06:41:07;;;;;;;2.10;2.00;;;16.90;64.90;;;;;;5071329;28;20119;-26
2022/02/09 06:43:33;;;;;;;1.88;1.77;;;16.90;64.80;;;;;;5056807;28;20508;-27
2022/02/09 06:45:59;;;;;;;1.83;1.73;;;17.00;64.70;;;;;;5085648;28;20055;-27
2022/02/09 06:48:24;;;;;;;1.80;1.70;;;17.00;64.70;;;;;;5071161;28;20036;-27
2022/02/09 06:50:55;;;;;;;1.75;1.65;;;17.00;64.60;;;;;;5062942;28;20082;-27
2022/02/09 06:55:57;;;;;;;1.63;1.52;;;17.00;64.70;;;;;;5066053;28;20081;-26
2022/02/09 07:00:59;;;;;;;1.92;1.83;;;17.00;64.60;;;;;;5055379;28;20048;-27
2022/02/09 07:03:24;;;;;;;1.90;1.80;;;16.90;64.60;;;;;;5063687;28;20072;-26
2022/02/09 07:05:50;;;;;;;1.70;1.60;;;16.90;64.70;;;;;;5064075;28;20048;-26
2022/02/09 07:08:16;;;;;;;1.85;1.75;;;16.90;64.80;;;;;;5070556;28;20036;-26
2022/02/09 07:10:42;;;;;;;1.67;1.58;;;16.90;64.90;;;;;;5055869;28;20044;-26
2022/02/09 07:13:08;;;;;;;1.90;1.80;;;16.90;65.00;;;;;;5070858;28;20036;-25
2022/02/09 07:15:40;;;;;;;1.92;1.60;;;16.80;64.90;;;;;;5071093;28;20048;-27
2022/02/09 07:18:10;;;;;;;1.90;1.80;;;16.90;64.90;;;;;;5056341;28;20174;-26
2022/02/09 07:21:14;;;;;;;1.77;1.67;;;16.90;64.90;;;;;;5056777;28;20052;-26
2022/02/09 07:23:36;;;;;;;1.73;1.63;;;16.90;64.70;;;;;;5050322;28;20037;-26
2022/02/09 07:26:27;;;;;;;1.70;1.60;;;16.90;64.90;;;;;;5058751;28;20044;-28
2022/02/09 07:28:50;;;;;;;1.60;1.50;;;16.90;64.80;;;;;;5040695;28;20127;-26
2022/02/09 07:31:16;;;;;;;1.25;1.25;;;16.90;64.70;;;;;;5067381;28;20071;-26
2022/02/09 07:33:43;;;;;;;1.60;1.50;;;16.90;64.80;;;;;;5073288;28;20482;-26
2022/02/09 07:36:08;;;;;;;1.40;1.40;;;16.80;64.70;;;;;;5075198;28;20048;-26
2022/02/09 07:38:34;;;;;;;1.63;1.52;;;16.80;64.80;;;;;;5074256;28;20063;-26
2022/02/09 07:41:01;;;;;;;1.77;1.67;;;16.80;64.80;;;;;;5074417;28;20494;-26
2022/02/09 07:46:35;;;;;;;1.88;1.77;;;16.80;64.90;;;;;;5026436;28;20049;-27
2022/02/09 07:49:22;;;;;;;1.73;1.63;;;16.80;64.80;;;;;;5064730;28;20045;-27
2022/02/09 07:54:21;;;;;;;1.80;1.70;;;16.80;64.90;;;;;;5054808;28;20565;-26
2022/02/09 07:56:47;;;;;;;1.65;1.55;;;16.80;64.80;;;;;;5055497;28;20136;-26
2022/02/09 07:59:13;;;;;;;1.67;1.58;;;16.80;64.80;;;;;;5079736;28;20132;-27
2022/02/09 08:01:39;;;;;;;1.73;1.63;;;16.80;64.80;;;;;;5068891;28;20045;-27
2022/02/09 08:04:05;;;;;;;1.30;1.30;;;16.80;64.80;;;;;;5069750;28;20051;-26
2022/02/09 08:06:31;;;;;;;1.50;1.40;;;16.80;64.80;;;;;;5061607;28;20103;-26
2022/02/09 08:09:00;;;;;;;1.33;1.33;;;16.80;64.90;;;;;;5055660;28;20551;-26
2022/02/09 08:11:33;;;;;;;1.30;1.30;;;16.80;64.80;;;;;;5054513;28;20111;-27
2022/02/09 08:27:44;;;;;;;1.65;1.55;;;16.70;65.00;;;;;;5067078;28;20055;-26
2022/02/09 08:32:44;;;;;;;1.33;1.27;;;16.80;64.90;;;;;;5068047;28;20036;-26
2022/02/09 08:35:10;;;;;;;1.27;1.17;;;16.80;64.90;;;;;;5057448;28;20069;-26
2022/02/09 08:37:36;;;;;;;1.15;1.05;;;16.80;65.00;;;;;;5073546;28;20044;-26
2022/02/09 08:40:02;;;;;;;1.70;1.60;;;16.70;65.00;;;;;;5073647;28;20420;-26
2022/02/09 08:42:28;;;;;;;1.30;1.20;;;16.70;65.00;;;;;;5072131;28;20057;-27
2022/02/09 08:44:54;;;;;;;1.20;1.20;;;16.70;65.10;;;;;;5064151;28;20059;-26
2022/02/09 08:47:20;;;;;;;1.40;1.40;;;16.70;65.00;;;;;;5062547;28;20051;-27
2022/02/09 08:49:46;;;;;;;1.33;1.23;;;16.70;66.10;;;;;;5060698;28;20099;-26
2022/02/09 08:52:12;;;;;;;1.60;1.50;;;16.70;65.30;;;;;;5065493;28;20049;-26
2022/02/09 08:54:38;;;;;;;1.70;1.60;;;16.60;65.30;;;;;;5052068;28;20525;-26
2022/02/09 08:57:09;;;;;;;1.50;1.40;;;16.70;65.30;;;;;;4711642;28;10000053;-27
2022/02/09 08:59:36;;;;;;;1.40;1.30;;;16.70;65.30;;;;;;5055266;28;20060;-26
2022/02/09 09:02:05;;;;;;;1.25;1.23;;;16.70;65.30;;;;;;5068389;28;20044;-26
2022/02/09 09:04:38;;;;;;;1.27;1.17;;;16.70;65.10;;;;;;5074545;28;20071;-26
2022/02/09 09:07:13;;;;;;;1.47;1.37;;;16.70;65.30;;;;;;5065187;28;20179;-26
2022/02/09 10:34:25;;;;;;;1.60;1.50;;;16.80;66.50;;;;;;5097380;28;20051;-26
2022/02/09 10:37:01;;;;;;;1.55;1.45;;;16.80;66.40;;;;;;5075252;28;20036;-27
2022/02/09 10:40:04;;;;;;;1.65;1.55;;;16.80;66.50;;;;;;5052921;28;20060;-25
2022/02/09 10:42:48;;;;;;;1.45;1.35;;;16.70;66.80;;;;;;5072453;28;20047;-27
2022/02/09 10:45:47;;;;;;;1.60;1.50;;;16.70;66.90;;;;;;5074513;28;20076;-27
2022/02/09 10:48:33;;;;;;;1.40;1.30;;;16.70;66.90;;;;;;5082672;28;20040;-28
2022/02/09 10:51:29;;;;;;;1.80;1.70;;;16.70;67.00;;;;;;5071168;28;20135;-27
2022/02/09 10:54:04;;;;;;;2.53;1.38;;;16.70;67.10;;;;;;5067748;28;20072;-27
2022/02/09 10:56:31;;;;;;;1.30;1.20;;;16.70;67.10;;;;;;5056914;28;20559;-26
2022/02/09 10:58:58;;;;;;;1.50;1.40;;;16.70;67.20;;;;;;5061782;28;20464;-26
2022/02/09 11:01:24;;;;;;;1.55;1.17;;;16.70;67.20;;;;;;5059326;28;20051;-26
2022/02/09 11:03:51;;;;;;;1.50;1.40;;;16.80;67.30;;;;;;5074688;28;20048;-26
2022/02/09 11:06:17;;;;;;;1.42;1.30;;;16.80;67.30;;;;;;5052977;28;20501;-24
2022/02/09 11:08:43;;;;;;;2.85;1.58;;;16.80;67.70;;;;;;5068651;28;20045;-26
2022/02/09 11:11:09;;;;;;;1.95;1.60;;;16.90;67.60;;;;;;5065239;28;20059;-26
2022/02/09 11:13:35;;;;;;;11.35;1.50;;;16.90;68.30;;;;;;5062048;28;20044;-26
2022/02/09 11:16:01;;;;;;;1.52;1.42;;;16.90;67.50;;;;;;5060278;28;20048;-26
2022/02/09 11:18:26;;;;;;;1.50;1.40;;;16.90;67.50;;;;;;5056934;28;20120;-26
2022/02/09 11:21:10;;;;;;;2.20;1.52;;;16.90;67.60;;;;;;5070818;28;20138;-28
2022/02/09 11:24:08;;;;;;;1.77;1.67;;;17.00;67.70;;;;;;5063935;28;20044;-26
2022/02/09 11:27:05;;;;;;;1.95;1.85;;;17.00;68.90;;;;;;4726934;28;10001023;-26
2022/02/09 11:43:21;;;;;;;2.47;2.28;;;17.00;68.60;;;;;;5054625;28;20033;-26
2022/02/09 12:10:26;;;;;;;2.20;1.70;;;17.00;68.90;;;;;;5053957;28;20597;-27
2022/02/09 12:13:05;;;;;;;4.35;1.50;;;17.00;68.50;;;;;;5045450;28;20427;-27
2022/02/09 12:18:37;;;;;;;1.42;1.30;;;17.00;68.60;;;;;;5040937;28;20044;-27
2022/02/09 12:21:16;;;;;;;3.88;1.88;;;17.00;68.60;;;;;;5057775;28;20582;-27
2022/02/09 12:23:44;;;;;;;1.50;1.40;;;17.00;68.40;;;;;;5059806;28;20097;-27
2022/02/09 12:26:11;;;;;;;1.73;1.40;;;17.10;68.40;;;;;;5060746;28;20051;-27
2022/02/09 12:28:39;;;;;;;1.40;1.30;;;17.10;68.20;;;;;;5068783;28;20057;-28
2022/02/09 12:31:16;;;;;;;3.10;1.33;;;17.10;68.00;;;;;;5055922;28;20056;-27
2022/02/09 12:33:43;;;;;;;1.40;1.30;;;17.10;68.10;;;;;;5050838;28;20548;-27
2022/02/09 12:36:13;;;;;;;3.72;1.67;;;17.10;67.90;;;;;;5052189;28;20076;-26
2022/02/09 12:38:39;;;;;;;5.13;1.60;;;17.10;68.00;;;;;;5073160;28;20048;-26
2022/02/09 12:41:21;;;;;;;1.60;1.50;;;17.10;68.40;;;;;;5075213;28;20041;-26
2022/02/09 12:43:58;;;;;;;2.95;1.30;;;17.10;68.40;;;;;;5061539;28;20584;-27
2022/02/09 12:46:34;;;;;;;1.50;1.40;;;17.10;68.10;;;;;;5070479;28;20107;-26
2022/02/09 12:49:12;;;;;;;2.33;1.27;;;17.10;68.10;;;;;;5059874;28;20049;-27
2022/02/09 12:51:38;;;;;;;2.38;1.25;;;17.00;68.00;;;;;;5071520;28;20045;-27
2022/02/09 12:54:04;;;;;;;2.05;1.40;;;17.00;68.10;;;;;;5070776;28;20174;-27
2022/02/09 12:56:37;;;;;;;2.20;1.45;;;17.00;68.10;;;;;;5063608;28;20072;-27
2022/02/09 12:59:05;;;;;;;2.75;1.48;;;17.00;68.00;;;;;;5059168;28;20072;-27
2022/02/09 13:01:53;;;;;;;2.55;2.20;;;16.90;67.90;;;;;;5073590;28;20404;-26
2022/02/09 13:04:33;;;;;;;2.55;1.50;;;16.90;68.00;;;;;;5061322;28;20564;-27
2022/02/09 13:07:00;;;;;;;1.50;1.40;;;16.90;67.90;;;;;;5065324;28;20044;-29
2022/02/09 13:09:26;;;;;;;4.13;1.58;;;16.90;67.80;;;;;;5064885;28;20104;-26
2022/02/09 13:11:52;;;;;;;2.35;1.30;;;16.90;68.70;;;;;;5064670;28;20056;-28
2022/02/09 13:14:41;;;;;;;2.63;1.20;;;16.90;67.70;;;;;;5078446;28;20054;-26
2022/02/09 13:17:23;;;;;;;1.65;1.35;;;16.90;67.70;;;;;;5073051;28;20558;-26
2022/02/09 13:23:02;;;;;;;2.60;1.45;;;16.90;67.60;;;;;;5064418;28;20516;-26
2022/02/09 13:54:59;;;;;;;1.20;1.20;;;16.90;67.00;;;;;;5073256;28;20100;-26
2022/02/09 14:55:26;;;;;;;1.30;1.10;;;16.80;66.40;;;;;;5061680;28;20124;-27
2022/02/09 14:58:08;;;;;;;1.35;1.35;;;16.80;66.40;;;;;;5057588;28;20136;-28
2022/02/09 15:00:38;;;;;;;1.40;1.30;;;16.70;66.40;;;;;;5055813;28;20041;-28
2022/02/09 15:03:20;;;;;;;1.50;1.40;;;16.70;66.40;;;;;;5065135;28;20041;-26
2022/02/09 15:16:33;;;;;;;1.10;1.10;;;16.70;66.30;;;;;;5071509;28;20261;-27
2022/02/09 15:24:13;;;;;;;1.70;1.58;;;16.80;66.40;;;;;;5074981;28;20074;-27
2022/02/09 15:26:39;;;;;;;2.10;1.90;;;16.80;66.30;;;;;;5057629;28;20127;-26
2022/02/09 15:29:04;;;;;;;15.65;8.95;;;16.80;66.10;;;;;;5073155;28;20090;-28
2022/02/09 15:31:53;;;;;;;30.80;16.80;;;16.80;66.00;;;;;;5071925;28;20396;-27
2022/02/09 15:34:31;;;;;;;20.55;12.93;;;16.80;65.90;;;;;;5071287;28;20060;-27
2022/02/09 15:37:13;;;;;;;16.50;10.93;;;16.90;65.90;;;;;;5065667;28;20079;-27
2022/02/09 15:39:44;;;;;;;15.73;9.95;;;16.80;65.90;;;;;;5070316;28;20064;-26
2022/02/09 16:09:30;;;;;;;11.77;7.90;;;16.80;65.80;;;;;;5067128;28;20055;-28
2022/02/09 16:23:32;;;;;;;8.15;6.80;;;16.80;66.20;;;;;;5060690;28;20055;-27
2022/02/09 16:33:11;;;;;;;10.38;7.18;;;16.70;66.20;;;;;;5066333;28;20060;-27
2022/02/09 16:44:37;;;;;;;10.20;6.70;;;16.80;66.20;;;;;;5071566;28;20527;-27
2022/02/09 16:47:05;;;;;;;9.50;7.30;;;16.80;66.10;;;;;;5069279;28;20055;-27
2022/02/09 16:49:54;;;;;;;8.35;6.95;;;16.80;66.00;;;;;;5071425;28;20055;-28
2022/02/09 16:52:26;;;;;;;8.93;6.35;;;16.80;66.00;;;;;;5069662;28;20044;-28
2022/02/09 17:15:27;;;;;;;5.85;5.25;;;16.90;65.90;;;;;;5070978;28;20064;-28
2022/02/09 17:19:22;;;;;;;5.93;5.40;;;16.90;65.90;;;;;;5069298;28;20052;-27
2022/02/09 17:21:48;;;;;;;6.30;5.50;;;16.90;65.90;;;;;;5066408;28;20049;-27
2022/02/09 17:24:14;;;;;;;6.30;5.70;;;16.90;65.80;;;;;;5069838;28;20055;-27
2022/02/09 17:26:40;;;;;;;8.35;4.60;;;16.90;65.70;;;;;;5068446;28;20049;-28
2022/02/09 17:29:06;;;;;;;5.38;4.95;;;16.90;65.60;;;;;;5059518;28;20167;-27
2022/02/09 17:57:56;;;;;;;4.90;4.50;;;16.90;65.30;;;;;;5077878;28;20054;-27
2022/02/09 18:00:22;;;;;;;5.50;4.53;;;16.90;65.30;;;;;;5068943;28;20112;-27
2022/02/09 18:02:52;;;;;;;5.43;4.38;;;17.00;65.20;;;;;;5064429;28;20072;-27
2022/02/09 18:05:34;;;;;;;4.50;4.18;;;17.00;65.00;;;;;;5071421;28;20108;-27
2022/02/09 18:08:05;;;;;;;5.97;5.18;;;17.00;65.00;;;;;;5063621;28;20214;-27
2022/02/09 18:10:47;;;;;;;6.22;5.50;;;17.00;65.10;;;;;;5075604;28;20111;-27
2022/02/09 18:13:38;;;;;;;5.93;5.28;;;17.00;65.10;;;;;;5074885;28;20048;-27
2022/02/09 18:29:26;;;;;;;7.88;5.45;;;17.00;65.20;;;;;;5064238;28;20081;-27
2022/02/09 19:04:06;;;;;;;5.80;5.28;;;17.10;64.90;;;;;;5066683;28;20148;-27
2022/02/09 19:16:57;;;;;;;5.75;5.22;;;17.10;64.80;;;;;;5052342;28;20064;-27
2022/02/09 19:48:33;;;;;;;5.53;4.50;;;17.10;65.30;;;;;;5065826;28;20060;-27
2022/02/09 19:53:57;;;;;;;5.03;4.63;;;17.20;65.30;;;;;;5065533;28;20428;-27
2022/02/09 19:56:25;;;;;;;5.45;4.85;;;17.20;65.10;;;;;;5057923;28;20063;-27
2022/02/09 20:01:18;;;;;;;5.40;4.18;;;17.20;65.40;;;;;;5053267;28;20124;-28
2022/02/09 20:03:43;;;;;;;5.57;4.25;;;17.20;65.30;;;;;;5064715;28;20044;-26
2022/02/09 20:06:09;;;;;;;6.78;4.32;;;17.10;65.20;;;;;;5053326;28;20052;-27
2022/02/09 20:08:37;;;;;;;4.22;3.92;;;17.20;65.10;;;;;;5057158;28;20094;-28
2022/02/09 20:11:07;;;;;;;4.40;4.00;;;17.10;65.10;;;;;;5071244;28;20143;-27
2022/02/09 20:13:33;;;;;;;4.35;4.00;;;17.10;65.20;;;;;;5067502;28;20052;-27
2022/02/09 20:15:59;;;;;;;4.20;3.80;;;17.10;65.20;;;;;;5055868;28;20136;-27
2022/02/09 20:18:26;;;;;;;4.20;3.78;;;17.20;65.10;;;;;;5062243;28;20083;-27
2022/02/09 20:20:52;;;;;;;5.95;4.43;;;17.10;65.20;;;;;;5068079;28;20055;-27
2022/02/09 20:23:18;;;;;;;4.57;4.18;;;17.20;65.40;;;;;;5061098;28;20110;-27
2022/02/09 20:25:43;;;;;;;5.18;4.13;;;17.20;65.30;;;;;;5058961;28;20053;-27
2022/02/09 20:28:09;;;;;;;4.85;4.18;;;17.10;65.00;;;;;;5062165;28;20398;-27
2022/02/09 20:30:41;;;;;;;5.20;3.85;;;17.20;65.10;;;;;;5071644;28;20077;-31
2022/02/09 20:33:12;;;;;;;4.68;4.05;;;17.10;65.20;;;;;;5060333;28;20037;-27
2022/02/09 20:35:38;;;;;;;4.25;3.95;;;17.10;65.30;;;;;;5055763;28;20037;-27
2022/02/09 20:38:03;;;;;;;4.38;3.97;;;17.10;65.30;;;;;;5074469;28;20044;-27
2022/02/09 20:41:06;;;;;;;4.20;3.90;;;17.20;65.30;;;;;;5057878;28;20198;-27
2022/02/09 20:43:21;;;;;;;4.20;3.90;;;17.20;65.10;;;;;;5061330;28;20049;-27
2022/02/09 20:45:53;;;;;;;4.50;3.30;;;17.20;65.00;;;;;;5050861;28;20450;-28
2022/02/09 20:48:24;;;;;;;4.03;3.72;;;17.20;65.30;;;;;;5064070;28;20479;-27
2022/02/09 20:50:50;;;;;;;3.97;3.65;;;17.10;65.30;;;;;;5068921;28;20059;-27
2022/02/09 20:53:15;;;;;;;3.83;3.53;;;17.20;65.30;;;;;;5070610;28;20045;-27
2022/02/09 20:55:44;;;;;;;7.10;3.80;;;17.20;65.30;;;;;;5061688;28;20564;-27
2022/02/09 20:58:10;;;;;;;4.82;3.60;;;17.10;65.20;;;;;;5068620;28;20049;-26
2022/02/09 21:06:19;;;;;;;3.80;3.50;;;17.10;65.30;;;;;;5067511;28;20142;-27
2022/02/09 21:14:00;;;;;;;3.58;3.30;;;17.20;65.40;;;;;;5057601;28;20548;-28
2022/02/09 21:58:48;;;;;;;3.17;2.90;;;17.10;65.00;;;;;;5058542;28;20102;-27
2022/02/09 22:01:33;;;;;;;2.97;2.78;;;17.10;65.00;;;;;;5060105;28;20049;-27
2022/02/09 22:20:38;;;;;;;3.13;2.92;;;17.10;65.00;;;;;;5056228;28;20575;-27
2022/02/09 22:28:30;;;;;;;3.17;2.90;;;17.20;65.20;;;;;;5059379;28;20117;-27
2022/02/09 22:55:20;;;;;;;3.47;3.17;;;17.20;65.00;;;;;;5072019;28;20496;-26
2022/02/09 22:58:01;;;;;;;3.22;2.72;;;17.20;64.70;;;;;;5059711;28;20052;-27
2022/02/09 23:06:26;;;;;;;2.90;2.70;;;17.10;64.90;;;;;;5070959;28;20045;-26
2022/02/09 23:14:07;;;;;;;4.47;3.20;;;17.10;64.60;;;;;;5071857;28;20063;-29
